createdAt,value
2018-03-17T00:00:05.569Z,21.85
2018-03-17T00:02:32.962Z,21.33
2018-03-17T00:05:00.475Z,20.20
2018-03-17T00:07:27.858Z,22.30
2018-03-17T00:09:55.281Z,20.95
2018-03-17T00:12:22.665Z,21.13
2018-03-17T00:14:50.096Z,20.93
2018-03-17T00:17:17.467Z,20.67
2018-03-17T00:19:44.877Z,20.50
2018-03-17T00:22:12.962Z,23.02
2018-03-17T00:24:40.356Z,22.93
2018-03-17T00:27:07.740Z,20.40
2018-03-17T00:29:35.158Z,22.93
2018-03-17T00:32:02.542Z,23.30
2018-03-17T00:34:29.945Z,22.58
2018-03-17T00:36:57.397Z,22.73
2018-03-17T00:39:24.789Z,23.75
2018-03-17T00:41:52.173Z,22.73
2018-03-17T00:44:19.581Z,21.48
2018-03-17T00:46:47.024Z,22.63
2018-03-17T00:49:14.423Z,20.30
2018-03-17T00:51:42.889Z,21.67
2018-03-17T00:54:10.361Z,24.03
2018-03-17T00:56:37.764Z,20.87
2018-03-17T00:59:05.267Z,23.57
2018-03-17T01:01:32.673Z,22.83
2018-03-17T01:04:00.155Z,23.40
2018-03-17T01:06:27.500Z,23.70
2018-03-17T01:08:54.952Z,22.98
2018-03-17T01:11:22.350Z,23.77
2018-03-17T01:13:49.734Z,22.30
2018-03-17T01:16:17.136Z,23.10
2018-03-17T01:18:44.525Z,22.40
2018-03-17T01:21:12.990Z,21.92
2018-03-17T01:23:40.372Z,22.30
2018-03-17T01:26:07.821Z,22.70
2018-03-17T01:28:35.224Z,23.10
2018-03-17T01:31:02.616Z,23.13
2018-03-17T01:33:30.001Z,22.20
2018-03-17T01:35:57.401Z,23.80
2018-03-17T01:38:24.778Z,22.13
2018-03-17T01:40:52.165Z,21.00
2018-03-17T01:43:19.553Z,22.62
2018-03-17T01:45:46.944Z,23.70
2018-03-17T01:48:14.469Z,22.80
2018-03-17T01:50:42.022Z,23.30
2018-03-17T01:53:09.614Z,21.47
2018-03-17T01:55:36.996Z,22.83
2018-03-17T01:58:04.497Z,21.67
2018-03-17T02:00:31.913Z,23.07
2018-03-17T02:02:59.311Z,23.07
2018-03-17T02:05:26.698Z,22.40
2018-03-17T02:07:54.101Z,23.55
2018-03-17T02:10:21.529Z,23.90
2018-03-17T02:12:48.920Z,23.70
2018-03-17T02:15:16.368Z,23.03
2018-03-17T02:17:43.814Z,22.43
2018-03-17T02:20:11.231Z,23.00
2018-03-17T02:22:38.710Z,23.93
2018-03-17T02:25:06.118Z,23.60
2018-03-17T02:27:33.535Z,23.93
2018-03-17T02:30:00.979Z,26.42
2018-03-17T02:32:28.412Z,25.07
2018-03-17T02:34:55.819Z,25.30
2018-03-17T02:37:23.363Z,25.12
2018-03-17T02:39:50.814Z,23.77
2018-03-17T02:42:18.208Z,24.63
2018-03-17T02:44:45.613Z,24.50
2018-03-17T02:47:13.408Z,26.08
2018-03-17T02:49:40.832Z,25.90
2018-03-17T02:52:08.341Z,24.47
2018-03-17T02:54:35.847Z,25.87
2018-03-17T02:57:05.997Z,26.27
2018-03-17T02:59:35.762Z,25.20
2018-03-17T03:02:03.210Z,24.07
2018-03-17T03:04:30.613Z,23.48
2018-03-17T03:06:58.022Z,26.03
2018-03-17T03:09:25.429Z,25.33
2018-03-17T03:11:52.851Z,25.30
2018-03-17T03:14:20.253Z,24.47
2018-03-17T03:16:49.878Z,24.10
2018-03-17T03:19:17.825Z,26.23
2018-03-17T03:21:45.221Z,25.63
2018-03-17T03:24:13.530Z,26.45
2018-03-17T03:26:41.007Z,26.47
2018-03-17T03:29:08.408Z,27.27
2018-03-17T03:31:35.792Z,27.20
2018-03-17T03:34:03.221Z,26.07
2018-03-17T03:36:30.634Z,27.67
2018-03-17T03:38:58.249Z,26.17
2018-03-17T03:41:25.685Z,26.63
2018-03-17T03:43:53.085Z,26.10
2018-03-17T03:46:20.468Z,26.87
2018-03-17T03:48:47.868Z,27.70
2018-03-17T03:51:17.854Z,25.57
2018-03-17T03:53:45.343Z,26.77
2018-03-17T03:56:13.710Z,26.20
2018-03-17T03:58:41.101Z,27.93
2018-03-17T04:01:08.485Z,25.80
2018-03-17T04:03:36.966Z,23.90
2018-03-17T04:06:04.396Z,25.70
2018-03-17T04:08:31.801Z,25.70
2018-03-17T04:10:59.188Z,26.23
2018-03-17T04:13:26.596Z,27.20
2018-03-17T04:15:53.972Z,25.80
2018-03-17T04:18:21.416Z,25.10
2018-03-17T04:20:48.803Z,23.77
2018-03-17T04:23:16.193Z,25.20
2018-03-17T04:25:45.226Z,24.92
2018-03-17T04:28:12.629Z,25.03
2018-03-17T04:30:40.024Z,23.37
2018-03-17T04:33:08.344Z,23.73
2018-03-17T04:35:35.761Z,23.07
2018-03-17T04:38:03.173Z,24.13
2018-03-17T04:40:30.571Z,23.10
2018-03-17T04:42:57.966Z,22.73
2018-03-17T04:45:25.364Z,23.10
2018-03-17T04:47:52.889Z,22.27
2018-03-17T04:50:20.333Z,23.20
2018-03-17T04:52:47.708Z,23.00
2018-03-17T04:55:18.452Z,23.33
2018-03-17T04:57:45.849Z,24.20
2018-03-17T05:00:13.237Z,23.47
2018-03-17T05:02:40.734Z,22.60
2018-03-17T05:05:08.131Z,23.30
2018-03-17T05:07:35.590Z,21.97
2018-03-17T05:10:02.981Z,22.92
2018-03-17T05:12:30.389Z,23.60
2018-03-17T05:14:57.804Z,22.73
2018-03-17T05:17:25.241Z,25.02
2018-03-17T05:19:52.638Z,22.57
2018-03-17T05:22:20.053Z,22.17
2018-03-17T05:24:47.437Z,20.77
2018-03-17T05:27:15.647Z,22.13
2018-03-17T05:29:43.024Z,21.30
2018-03-17T05:32:10.421Z,22.50
2018-03-17T05:34:37.830Z,21.37
2018-03-17T05:37:05.227Z,21.50
2018-03-17T05:39:32.713Z,21.62
2018-03-17T05:42:00.240Z,20.83
2018-03-17T05:44:27.669Z,22.73
2018-03-17T05:46:55.084Z,21.70
2018-03-17T05:49:22.469Z,22.20
2018-03-17T05:51:49.865Z,21.07
2018-03-17T05:54:17.261Z,21.13
2018-03-17T05:56:44.737Z,21.60
2018-03-17T05:59:12.128Z,20.90
2018-03-17T06:01:39.521Z,19.90
2018-03-17T06:04:06.912Z,20.10
2018-03-17T06:06:35.338Z,20.62
2018-03-17T06:09:02.984Z,20.43
2018-03-17T06:11:30.376Z,20.57
2018-03-17T06:13:57.786Z,20.00
2018-03-17T06:16:25.168Z,18.50
2018-03-17T06:18:52.567Z,18.20
2018-03-17T06:21:19.960Z,19.30
2018-03-17T06:23:47.347Z,18.12
2018-03-17T06:26:14.724Z,18.83
2018-03-17T06:28:42.152Z,17.87
2018-03-17T06:31:09.538Z,18.80
2018-03-17T06:33:36.921Z,16.87
2018-03-17T06:36:04.327Z,19.03
2018-03-17T06:38:31.720Z,18.87
2018-03-17T06:40:59.149Z,19.77
2018-03-17T06:43:26.544Z,18.60
2018-03-17T06:45:53.950Z,18.12
2018-03-17T06:48:21.331Z,18.73
2018-03-17T06:50:48.765Z,17.63
2018-03-17T06:53:16.177Z,20.10
2018-03-17T06:55:45.189Z,17.20
2018-03-17T06:58:12.576Z,17.73
2018-03-17T07:00:39.979Z,18.77
2018-03-17T07:03:07.405Z,18.80
2018-03-17T07:05:34.793Z,17.00
2018-03-17T07:08:02.176Z,18.10
2018-03-17T07:10:30.573Z,20.35
2018-03-17T07:12:57.966Z,17.80
2018-03-17T07:15:25.347Z,18.03
2018-03-17T07:17:53.708Z,18.10
2018-03-17T07:20:21.423Z,18.70
2018-03-17T07:22:48.841Z,18.50
2018-03-17T07:25:16.259Z,19.40
2018-03-17T07:27:43.626Z,19.08
2018-03-17T07:30:11.007Z,17.40
2018-03-17T07:32:38.481Z,19.00
2018-03-17T07:35:05.872Z,17.33
2018-03-17T07:37:33.256Z,19.27
2018-03-17T07:40:00.641Z,18.50
2018-03-17T07:42:28.050Z,18.80
2018-03-17T07:44:55.422Z,17.92
2018-03-17T07:47:22.809Z,17.83
2018-03-17T07:49:50.232Z,19.08
2018-03-17T07:52:17.617Z,20.20
2018-03-17T07:54:44.997Z,19.63
2018-03-17T07:57:12.419Z,19.23
2018-03-17T07:59:39.794Z,18.13
2018-03-17T08:02:07.192Z,17.77
2018-03-17T08:04:34.582Z,18.13
2018-03-17T08:07:01.983Z,19.40
2018-03-17T08:09:29.382Z,18.33
2018-03-17T08:11:56.805Z,17.87
2018-03-17T08:14:24.259Z,17.43
2018-03-17T08:16:51.577Z,19.08
2018-03-17T08:19:19.322Z,17.83
2018-03-17T08:21:46.726Z,18.77
2018-03-17T08:24:19.169Z,17.34
2018-03-17T08:26:46.568Z,19.00
2018-03-17T08:29:13.977Z,17.77
2018-03-17T08:31:41.373Z,18.53
2018-03-17T08:34:08.796Z,16.53
2018-03-17T08:36:36.141Z,18.00
2018-03-17T08:39:03.541Z,17.90
2018-03-17T08:41:30.938Z,16.40
2018-03-17T08:43:58.340Z,15.80
2018-03-17T08:46:25.750Z,17.07
2018-03-17T08:48:53.145Z,16.47
2018-03-17T08:51:20.528Z,15.93
2018-03-17T08:53:47.960Z,17.00
2018-03-17T08:56:15.341Z,15.90
2018-03-17T08:58:42.777Z,17.07
2018-03-17T09:01:10.103Z,16.60
2018-03-17T09:03:37.509Z,16.93
2018-03-17T09:06:04.916Z,16.33
2018-03-17T09:08:32.398Z,16.20
2018-03-17T09:11:00.163Z,17.20
2018-03-17T09:13:27.541Z,17.57
2018-03-17T09:15:54.989Z,16.60
2018-03-17T09:18:22.491Z,16.90
2018-03-17T09:20:49.974Z,16.62
2018-03-17T09:23:17.364Z,16.23
2018-03-17T09:25:45.388Z,15.90
2018-03-17T09:28:12.794Z,15.83
2018-03-17T09:30:40.168Z,15.97
2018-03-17T09:33:07.555Z,16.07
2018-03-17T09:35:34.957Z,16.90
2018-03-17T09:38:02.363Z,15.70
2018-03-17T09:40:29.768Z,15.95
2018-03-17T09:42:57.177Z,14.87
2018-03-17T09:45:24.559Z,15.60
2018-03-17T09:47:52.048Z,15.03
2018-03-17T09:50:19.465Z,16.35
2018-03-17T09:52:46.865Z,15.37
2018-03-17T09:55:14.247Z,15.40
2018-03-17T09:57:41.681Z,15.50
2018-03-17T10:00:09.082Z,14.87
2018-03-17T10:02:36.476Z,16.33
2018-03-17T10:05:03.864Z,16.20
2018-03-17T10:07:31.257Z,16.63
2018-03-17T10:09:58.649Z,15.97
2018-03-17T10:12:26.063Z,15.63
2018-03-17T10:14:53.452Z,16.73
2018-03-17T10:17:20.841Z,16.05
2018-03-17T10:19:48.237Z,16.50
2018-03-17T10:22:15.703Z,17.67
2018-03-17T10:24:43.097Z,16.47
2018-03-17T10:27:10.472Z,16.07
2018-03-17T10:29:37.877Z,16.03
2018-03-17T10:32:05.280Z,15.30
2018-03-17T10:34:32.694Z,16.27
2018-03-17T10:37:00.073Z,15.43
2018-03-17T10:39:27.482Z,16.80
2018-03-17T10:41:54.872Z,15.57
2018-03-17T10:44:22.281Z,15.30
2018-03-17T10:46:49.670Z,16.15
2018-03-17T10:49:17.132Z,14.77
2018-03-17T10:51:44.454Z,14.57
2018-03-17T10:54:11.837Z,15.80
2018-03-17T10:56:39.245Z,15.52
2018-03-17T10:59:07.511Z,15.13
2018-03-17T11:01:40.563Z,14.63
2018-03-17T11:04:08.164Z,15.00
2018-03-17T11:06:35.629Z,15.60
2018-03-17T11:09:03.026Z,14.43
2018-03-17T11:11:30.436Z,14.77
2018-03-17T11:13:57.826Z,14.45
2018-03-17T11:16:25.289Z,14.00
2018-03-17T11:18:52.670Z,15.23
2018-03-17T11:21:20.234Z,14.13
2018-03-17T11:23:47.624Z,15.10
2018-03-17T11:26:15.003Z,13.40
2018-03-17T11:28:42.397Z,13.40
2018-03-17T11:31:09.914Z,13.13
2018-03-17T11:33:37.309Z,13.03
2018-03-17T11:36:04.712Z,13.50
2018-03-17T11:38:32.184Z,14.57
2018-03-17T11:40:59.550Z,14.90
2018-03-17T11:43:26.943Z,13.50
2018-03-17T11:45:54.398Z,12.87
2018-03-17T11:48:22.108Z,13.30
2018-03-17T11:50:49.571Z,12.87
2018-03-17T11:53:16.953Z,13.40
2018-03-17T11:55:44.335Z,14.47
2018-03-17T11:58:11.761Z,12.70
2018-03-17T12:00:39.161Z,12.67
2018-03-17T12:03:06.644Z,12.20
2018-03-17T12:05:35.020Z,13.00
2018-03-17T12:08:02.422Z,12.90
2018-03-17T12:10:29.823Z,14.35
2018-03-17T12:12:57.207Z,13.03
2018-03-17T12:15:24.663Z,12.93
2018-03-17T12:17:52.106Z,13.00
2018-03-17T12:20:19.498Z,12.27
2018-03-17T12:22:47.010Z,12.77
2018-03-17T12:25:14.409Z,12.70
2018-03-17T12:27:41.849Z,11.77
2018-03-17T12:30:09.328Z,11.20
2018-03-17T12:32:36.712Z,13.13
2018-03-17T12:35:04.128Z,13.13
2018-03-17T12:37:31.523Z,12.80
2018-03-17T12:39:58.905Z,11.88
2018-03-17T12:42:26.339Z,11.10
2018-03-17T12:44:53.824Z,11.83
2018-03-17T12:47:21.214Z,11.95
2018-03-17T12:49:52.197Z,14.20
2018-03-17T12:52:19.581Z,12.83
2018-03-17T12:54:47.216Z,12.73
2018-03-17T12:57:14.619Z,12.63
2018-03-17T12:59:42.139Z,12.67
2018-03-17T13:02:09.534Z,12.70
2018-03-17T13:04:36.953Z,11.67
2018-03-17T13:07:04.358Z,12.30
2018-03-17T13:09:31.761Z,11.93
2018-03-17T13:11:59.141Z,12.40
2018-03-17T13:14:26.613Z,11.70
2018-03-17T13:16:54.005Z,12.50
2018-03-17T13:19:30.191Z,12.20
2018-03-17T13:21:57.580Z,11.73
2018-03-17T13:24:25.001Z,11.87
2018-03-17T13:27:04.181Z,11.40
2018-03-17T13:29:31.601Z,13.40
2018-03-17T13:32:04.438Z,12.15
2018-03-17T13:34:40.157Z,12.53
2018-03-17T13:37:19.799Z,12.43
2018-03-17T13:39:47.214Z,12.13
2018-03-17T13:42:14.627Z,14.20
2018-03-17T13:44:42.162Z,13.27
2018-03-17T13:47:09.600Z,13.47
2018-03-17T13:49:36.978Z,12.60
2018-03-17T13:52:04.383Z,12.40
2018-03-17T13:54:31.810Z,12.43
2018-03-17T13:56:59.274Z,14.27
2018-03-17T13:59:26.666Z,12.82
2018-03-17T14:01:54.078Z,14.30
2018-03-17T14:04:21.498Z,14.97
2018-03-17T14:06:48.897Z,14.30
2018-03-17T14:09:16.852Z,12.57
2018-03-17T14:11:44.276Z,12.57
2018-03-17T14:14:11.659Z,13.47
2018-03-17T14:16:39.065Z,11.60
2018-03-17T14:19:06.513Z,12.13
2018-03-17T14:21:33.969Z,12.40
2018-03-17T14:24:01.344Z,12.63
2018-03-17T14:26:28.749Z,13.87
2018-03-17T14:28:56.142Z,12.20
2018-03-17T14:31:23.570Z,12.13
2018-03-17T14:33:51.206Z,13.57
2018-03-17T14:36:18.657Z,11.30
2018-03-17T14:38:47.000Z,12.68
2018-03-17T14:41:14.518Z,14.27
2018-03-17T14:43:41.906Z,12.88
2018-03-17T14:46:09.439Z,13.07
2018-03-17T14:48:36.861Z,13.97
2018-03-17T14:51:04.245Z,13.20
2018-03-17T14:53:31.647Z,13.53
2018-03-17T14:55:59.045Z,13.37
2018-03-17T14:58:26.553Z,12.73
2018-03-17T15:00:53.940Z,12.32
2018-03-17T15:03:21.326Z,14.40
2018-03-17T15:05:48.755Z,12.80
2018-03-17T15:08:16.135Z,13.27
2018-03-17T15:10:43.513Z,13.40
2018-03-17T15:13:10.926Z,14.50
2018-03-17T15:15:38.324Z,14.33
2018-03-17T15:18:05.788Z,13.50
2018-03-17T15:20:33.208Z,13.07
2018-03-17T15:23:00.650Z,13.40
2018-03-17T15:25:28.053Z,14.43
2018-03-17T15:27:55.555Z,13.45
2018-03-17T15:30:22.940Z,15.93
2018-03-17T15:32:50.352Z,14.03
2018-03-17T15:35:17.954Z,15.07
2018-03-17T15:37:46.336Z,14.25
2018-03-17T15:40:13.745Z,14.47
2018-03-17T15:42:41.120Z,14.20
2018-03-17T15:45:08.640Z,13.77
2018-03-17T15:47:36.032Z,14.90
2018-03-17T15:50:03.540Z,14.17
2018-03-17T15:52:30.926Z,15.27
2018-03-17T15:54:58.299Z,15.27
2018-03-17T15:57:25.844Z,15.70
2018-03-17T15:59:53.222Z,16.23
2018-03-17T16:02:20.635Z,13.87
2018-03-17T16:04:48.133Z,13.50
2018-03-17T16:07:15.538Z,14.00
2018-03-17T16:09:42.923Z,13.10
2018-03-17T16:14:44.102Z,14.40
2018-03-17T16:17:11.609Z,14.47
2018-03-17T16:19:38.980Z,13.67
2018-03-17T16:22:06.372Z,13.80
2018-03-17T16:24:33.756Z,13.00
2018-03-17T16:27:01.214Z,15.27
2018-03-17T16:29:28.618Z,13.50
2018-03-17T16:31:56.097Z,14.30
2018-03-17T16:34:23.510Z,17.67
2018-03-17T16:36:50.903Z,14.23
2018-03-17T16:39:18.319Z,14.15
2018-03-17T16:41:45.689Z,15.13
2018-03-17T16:44:13.075Z,13.20
2018-03-17T16:46:40.448Z,13.93
2018-03-17T16:49:07.924Z,14.47
2018-03-17T16:51:35.394Z,15.00
2018-03-17T16:54:02.803Z,15.63
2018-03-17T16:56:30.212Z,15.10
2018-03-17T16:58:57.606Z,14.77
2018-03-17T17:01:25.009Z,16.50
2018-03-17T17:03:52.502Z,14.20
2018-03-17T17:06:19.976Z,14.50
2018-03-17T17:08:47.633Z,13.38
2018-03-17T17:11:15.049Z,13.33
2018-03-17T17:13:42.442Z,15.57
2018-03-17T17:16:09.824Z,14.13
2018-03-17T17:18:37.663Z,13.60
2018-03-17T17:21:05.163Z,13.07
2018-03-17T17:23:32.553Z,14.27
2018-03-17T17:25:59.946Z,14.15
2018-03-17T17:28:27.470Z,13.83
2018-03-17T17:30:55.886Z,13.13
2018-03-17T17:33:23.269Z,15.10
2018-03-17T17:35:50.652Z,13.93
2018-03-17T17:38:18.041Z,13.60
2018-03-17T17:40:45.520Z,15.80
2018-03-17T17:43:12.913Z,13.33
2018-03-17T17:45:40.297Z,13.50
2018-03-17T17:48:07.684Z,14.15
2018-03-17T17:50:35.088Z,14.77
2018-03-17T17:55:52.370Z,14.93
2018-03-17T17:58:20.013Z,14.50
2018-03-17T18:00:47.793Z,15.52
2018-03-17T18:03:15.226Z,15.53
2018-03-17T18:05:42.655Z,14.40
2018-03-17T18:08:10.075Z,14.87
2018-03-17T18:10:37.456Z,13.83
2018-03-17T18:13:04.879Z,13.70
2018-03-17T18:15:32.254Z,14.85
2018-03-17T18:17:59.662Z,14.00
2018-03-17T18:20:27.064Z,13.43
2018-03-17T18:22:54.479Z,14.40
2018-03-17T18:25:21.864Z,13.57
2018-03-17T18:27:49.286Z,14.00
2018-03-17T18:30:16.709Z,14.67
2018-03-17T18:32:44.206Z,13.10
2018-03-17T18:35:11.613Z,13.73
2018-03-17T18:37:39.045Z,14.70
2018-03-17T18:40:06.449Z,12.73
2018-03-17T18:42:33.855Z,13.18
2018-03-17T18:45:01.337Z,13.77
2018-03-17T18:47:29.500Z,14.27
2018-03-17T18:49:56.940Z,15.35
2018-03-17T18:52:24.327Z,12.75
2018-03-17T18:54:51.714Z,13.80
2018-03-17T18:57:19.136Z,14.07
2018-03-17T18:59:46.524Z,14.03
2018-03-17T19:02:13.915Z,13.38
2018-03-17T19:04:41.305Z,13.13
2018-03-17T19:07:08.879Z,13.27
2018-03-17T19:09:36.328Z,16.00
2018-03-17T19:12:03.700Z,12.70
2018-03-17T19:14:31.309Z,13.33
2018-03-17T19:16:58.727Z,13.00
2018-03-17T19:19:26.131Z,14.20
2018-03-17T19:21:53.523Z,13.17
2018-03-17T19:24:21.022Z,12.70
2018-03-17T19:26:48.736Z,13.97
2018-03-17T19:29:16.099Z,12.70
2018-03-17T19:31:43.485Z,14.43
2018-03-17T19:34:10.874Z,13.53
2018-03-17T19:36:38.278Z,13.07
2018-03-17T19:39:05.660Z,13.33
2018-03-17T19:41:33.056Z,12.50
2018-03-17T19:44:00.450Z,12.83
2018-03-17T19:46:27.977Z,12.30
2018-03-17T19:48:55.348Z,12.30
2018-03-17T19:51:22.785Z,13.43
2018-03-17T19:53:50.183Z,15.18
2018-03-17T19:56:18.359Z,13.52
2018-03-17T19:58:45.723Z,14.00
2018-03-17T20:01:13.132Z,12.80
2018-03-17T20:03:40.518Z,12.87
2018-03-17T20:06:07.951Z,13.93
2018-03-17T20:08:35.336Z,14.23
2018-03-17T20:11:02.740Z,14.30
2018-03-17T20:13:30.161Z,13.88
2018-03-17T20:15:57.547Z,13.33
2018-03-17T20:18:24.946Z,13.83
2018-03-17T20:20:52.342Z,13.30
2018-03-17T20:23:19.740Z,13.60
2018-03-17T20:25:47.289Z,13.03
2018-03-17T20:28:14.698Z,12.77
2018-03-17T20:30:42.099Z,13.37
2018-03-17T20:33:09.497Z,13.63
2018-03-17T20:35:36.868Z,13.57
2018-03-17T20:38:04.272Z,12.60
2018-03-17T20:40:31.671Z,13.97
2018-03-17T20:43:01.011Z,13.60
2018-03-17T20:45:28.414Z,12.25
2018-03-17T20:47:55.801Z,14.37
2018-03-17T20:50:24.004Z,14.50
2018-03-17T20:52:53.491Z,13.13
2018-03-17T20:55:20.906Z,17.13
2018-03-17T20:57:48.720Z,13.10
2018-03-17T21:00:16.437Z,13.63
2018-03-17T21:02:43.849Z,13.37
2018-03-17T21:05:11.223Z,14.17
2018-03-17T21:07:38.631Z,14.30
2018-03-17T21:10:06.029Z,14.03
2018-03-17T21:12:33.413Z,14.47
2018-03-17T21:15:00.797Z,13.30
2018-03-17T21:17:28.204Z,14.00
2018-03-17T21:19:55.569Z,13.23
2018-03-17T21:22:22.956Z,13.35
2018-03-17T21:24:50.340Z,14.03
2018-03-17T21:27:17.736Z,14.47
2018-03-17T21:29:45.169Z,13.57
2018-03-17T21:32:12.562Z,13.47
2018-03-17T21:34:39.941Z,14.40
2018-03-17T21:37:07.341Z,13.87
2018-03-17T21:39:34.760Z,15.13
2018-03-17T21:42:02.203Z,15.50
2018-03-17T21:44:29.625Z,14.90
2018-03-17T21:46:57.052Z,14.83
2018-03-17T21:49:24.491Z,13.40
2018-03-17T21:51:51.921Z,14.40
2018-03-17T21:54:19.427Z,13.93
2018-03-17T21:56:46.819Z,14.90
2018-03-17T21:59:14.206Z,14.80
2018-03-17T22:01:41.607Z,14.43
2018-03-17T22:04:09.018Z,16.40
2018-03-17T22:06:36.447Z,15.00
2018-03-17T22:09:03.804Z,14.30
2018-03-17T22:11:31.217Z,14.57
2018-03-17T22:13:58.619Z,16.23
2018-03-17T22:16:26.053Z,14.67
2018-03-17T22:18:53.435Z,14.65
2018-03-17T22:21:20.852Z,14.00
2018-03-17T22:23:49.188Z,14.13
2018-03-17T22:26:16.744Z,14.70
2018-03-17T22:28:44.203Z,14.90
2018-03-17T22:31:11.587Z,14.63
2018-03-17T22:33:38.992Z,15.23
2018-03-17T22:36:06.453Z,15.23
2018-03-17T22:38:33.956Z,13.97
2018-03-17T22:41:01.357Z,16.27
2018-03-17T22:43:28.767Z,16.33
2018-03-17T22:45:57.055Z,16.45
2018-03-17T22:48:24.744Z,17.30
2018-03-17T22:50:52.151Z,15.90
2018-03-17T22:53:24.885Z,18.30
2018-03-17T22:55:52.270Z,17.85
2018-03-17T22:58:19.673Z,17.23
2018-03-17T23:00:47.071Z,19.10
2018-03-17T23:03:14.533Z,18.97
2018-03-17T23:05:41.924Z,18.00
2018-03-17T23:08:09.930Z,21.50
2018-03-17T23:10:37.315Z,18.20
2018-03-17T23:13:04.765Z,19.55
2018-03-17T23:15:32.165Z,19.25
2018-03-17T23:17:59.569Z,18.40
2018-03-17T23:20:26.953Z,19.53
2018-03-17T23:22:54.356Z,19.73
2018-03-17T23:25:21.734Z,18.20
2018-03-17T23:27:49.637Z,20.70
2018-03-17T23:30:17.047Z,27.80
2018-03-17T23:32:44.471Z,20.50
2018-03-17T23:35:11.884Z,20.33
2018-03-17T23:37:39.296Z,19.60
2018-03-17T23:40:06.743Z,21.83
2018-03-17T23:42:34.126Z,18.75
2018-03-17T23:45:01.511Z,18.70
2018-03-17T23:47:28.958Z,19.50
2018-03-17T23:49:56.481Z,20.43
2018-03-17T23:52:23.865Z,23.25
2018-03-17T23:54:51.244Z,19.27
2018-03-17T23:57:23.655Z,21.83
2018-03-17T23:59:55.066Z,21.00
